sensor_id;sensor_type;location;lat;lon;timestamp;pressure;altitude;pressure_sealevel;temperature;humidity
32131;BME280;18639;50.716;7.086;2022-09-17T00:01:26;100062.75;;;11.02;100.00
32131;BME280;18639;50.716;7.086;2022-09-17T00:03:57;100071.00;;;11.07;100.00
32131;BME280;18639;50.716;7.086;2022-09-17T00:06:26;100062.16;;;10.98;100.00
32131;BME280;18639;50.716;7.086;2022-09-17T00:08:52;100053.56;;;10.98;100.00
32131;BME280;18639;50.716;7.086;2022-09-17T00:11:21;100073.72;;;11.06;100.00
32131;BME280;18639;50.716;7.086;2022-09-17T00:13:48;100073.38;;;11.10;100.00
32131;BME280;18639;50.716;7.086;2022-09-17T00:16:27;100070.56;;;11.13;100.00
32131;BME280;18639;50.716;7.086;2022-09-17T00:18:54;100071.16;;;11.17;100.00
32131;BME280;18639;50.716;7.086;2022-09-17T00:21:20;100067.16;;;11.13;100.00
32131;BME280;18639;50.716;7.086;2022-09-17T00:23:45;100074.72;;;11.16;100.00
32131;BME280;18639;50.716;7.086;2022-09-17T00:26:11;100048.47;;;11.09;100.00
32131;BME280;18639;50.716;7.086;2022-09-17T00:28:37;100074.47;;;11.19;100.00
32131;BME280;18639;50.716;7.086;2022-09-17T00:31:09;100072.97;;;11.16;100.00
32131;BME280;18639;50.716;7.086;2022-09-17T00:33:34;100085.16;;;11.14;100.00
32131;BME280;18639;50.716;7.086;2022-09-17T00:36:01;100063.75;;;11.12;100.00
32131;BME280;18639;50.716;7.086;2022-09-17T00:38:27;100078.41;;;11.24;100.00
32131;BME280;18639;50.716;7.086;2022-09-17T00:40:53;100061.44;;;11.20;100.00
32131;BME280;18639;50.716;7.086;2022-09-17T00:43:41;100073.38;;;11.34;100.00
32131;BME280;18639;50.716;7.086;2022-09-17T00:46:23;100075.38;;;11.30;100.00
32131;BME280;18639;50.716;7.086;2022-09-17T00:48:51;100066.78;;;11.30;100.00
32131;BME280;18639;50.716;7.086;2022-09-17T00:51:20;100071.28;;;11.39;100.00
32131;BME280;18639;50.716;7.086;2022-09-17T00:53:47;100063.84;;;11.34;100.00
32131;BME280;18639;50.716;7.086;2022-09-17T00:56:25;100060.34;;;11.35;100.00
32131;BME280;18639;50.716;7.086;2022-09-17T00:58:51;100070.69;;;11.35;100.00
32131;BME280;18639;50.716;7.086;2022-09-17T01:01:17;100076.94;;;11.44;100.00
32131;BME280;18639;50.716;7.086;2022-09-17T01:03:43;100062.00;;;11.36;100.00
32131;BME280;18639;50.716;7.086;2022-09-17T01:11:46;100073.31;;;11.47;100.00
32131;BME280;18639;50.716;7.086;2022-09-17T01:14:26;100062.25;;;11.45;100.00
32131;BME280;18639;50.716;7.086;2022-09-17T01:17:13;100075.91;;;11.47;100.00
32131;BME280;18639;50.716;7.086;2022-09-17T01:20:16;100084.84;;;11.43;100.00
32131;BME280;18639;50.716;7.086;2022-09-17T01:22:53;100085.09;;;11.51;100.00
32131;BME280;18639;50.716;7.086;2022-09-17T01:30:58;100073.09;;;11.50;100.00
32131;BME280;18639;50.716;7.086;2022-09-17T01:33:33;100084.16;;;11.52;100.00
32131;BME280;18639;50.716;7.086;2022-09-17T01:44:22;100066.16;;;11.50;100.00
32131;BME280;18639;50.716;7.086;2022-09-17T01:46:54;100080.75;;;11.51;100.00
32131;BME280;18639;50.716;7.086;2022-09-17T01:49:22;100082.81;;;11.59;100.00
32131;BME280;18639;50.716;7.086;2022-09-17T01:51:50;100081.34;;;11.55;100.00
32131;BME280;18639;50.716;7.086;2022-09-17T01:54:30;100074.25;;;11.46;100.00
32131;BME280;18639;50.716;7.086;2022-09-17T01:57:02;100073.44;;;11.45;100.00
32131;BME280;18639;50.716;7.086;2022-09-17T02:04:52;100080.25;;;11.46;100.00
32131;BME280;18639;50.716;7.086;2022-09-17T02:07:21;100069.28;;;11.31;100.00
32131;BME280;18639;50.716;7.086;2022-09-17T02:09:59;100082.25;;;11.43;100.00
32131;BME280;18639;50.716;7.086;2022-09-17T02:12:32;100090.50;;;11.48;100.00
32131;BME280;18639;50.716;7.086;2022-09-17T02:15:02;100090.84;;;11.43;100.00
32131;BME280;18639;50.716;7.086;2022-09-17T02:17:38;100098.97;;;11.50;100.00
32131;BME280;18639;50.716;7.086;2022-09-17T02:20:08;100097.31;;;11.49;100.00
32131;BME280;18639;50.716;7.086;2022-09-17T02:22:55;100086.38;;;11.45;100.00
32131;BME280;18639;50.716;7.086;2022-09-17T02:25:30;100102.19;;;11.53;100.00
32131;BME280;18639;50.716;7.086;2022-09-17T02:28:02;100096.13;;;11.42;100.00
32131;BME280;18639;50.716;7.086;2022-09-17T02:30:29;100100.22;;;11.44;100.00
32131;BME280;18639;50.716;7.086;2022-09-17T02:32:55;100105.06;;;11.37;100.00
32131;BME280;18639;50.716;7.086;2022-09-17T02:35:20;100087.88;;;11.36;100.00
32131;BME280;18639;50.716;7.086;2022-09-17T02:37:46;100099.41;;;11.44;100.00
32131;BME280;18639;50.716;7.086;2022-09-17T02:40:14;100094.47;;;11.40;100.00
32131;BME280;18639;50.716;7.086;2022-09-17T02:43:20;100105.81;;;11.51;100.00
32131;BME280;18639;50.716;7.086;2022-09-17T02:57:20;100091.50;;;11.34;100.00
32131;BME280;18639;50.716;7.086;2022-09-17T02:59:55;100103.41;;;11.36;100.00
32131;BME280;18639;50.716;7.086;2022-09-17T03:02:32;100107.56;;;11.26;100.00
32131;BME280;18639;50.716;7.086;2022-09-17T03:05:02;100110.84;;;11.28;100.00
32131;BME280;18639;50.716;7.086;2022-09-17T03:07:28;100099.25;;;11.10;100.00
32131;BME280;18639;50.716;7.086;2022-09-17T03:09:53;100065.25;;;10.91;100.00
32131;BME280;18639;50.716;7.086;2022-09-17T03:12:19;100109.38;;;11.13;100.00
32131;BME280;18639;50.716;7.086;2022-09-17T03:14:44;100092.75;;;11.05;100.00
32131;BME280;18639;50.716;7.086;2022-09-17T03:17:10;100112.69;;;11.15;100.00
32131;BME280;18639;50.716;7.086;2022-09-17T03:19:36;100105.50;;;11.19;100.00
32131;BME280;18639;50.716;7.086;2022-09-17T03:22:01;100108.28;;;11.28;100.00
32131;BME280;18639;50.716;7.086;2022-09-17T03:24:26;100098.84;;;11.27;100.00
32131;BME280;18639;50.716;7.086;2022-09-17T03:26:51;100102.75;;;11.33;100.00
32131;BME280;18639;50.716;7.086;2022-09-17T03:29:17;100112.91;;;11.36;100.00
32131;BME280;18639;50.716;7.086;2022-09-17T03:31:42;100105.97;;;11.36;100.00
32131;BME280;18639;50.716;7.086;2022-09-17T03:34:08;100104.22;;;11.37;100.00
32131;BME280;18639;50.716;7.086;2022-09-17T03:36:33;100111.53;;;11.43;100.00
32131;BME280;18639;50.716;7.086;2022-09-17T03:38:59;100088.81;;;11.35;100.00
32131;BME280;18639;50.716;7.086;2022-09-17T03:41:24;100114.50;;;11.50;100.00
32131;BME280;18639;50.716;7.086;2022-09-17T03:43:50;100100.22;;;11.44;100.00
32131;BME280;18639;50.716;7.086;2022-09-17T03:46:16;100108.81;;;11.45;100.00
32131;BME280;18639;50.716;7.086;2022-09-17T03:48:42;100123.09;;;11.50;100.00
32131;BME280;18639;50.716;7.086;2022-09-17T03:51:07;100122.97;;;11.52;100.00
32131;BME280;18639;50.716;7.086;2022-09-17T03:53:33;100093.03;;;11.36;100.00
32131;BME280;18639;50.716;7.086;2022-09-17T03:55:59;100121.22;;;11.52;100.00
32131;BME280;18639;50.716;7.086;2022-09-17T03:58:25;100122.56;;;11.58;100.00
32131;BME280;18639;50.716;7.086;2022-09-17T04:00:50;100071.97;;;11.30;100.00
32131;BME280;18639;50.716;7.086;2022-09-17T04:03:21;100120.88;;;11.57;100.00
32131;BME280;18639;50.716;7.086;2022-09-17T04:05:47;100085.81;;;11.29;100.00
32131;BME280;18639;50.716;7.086;2022-09-17T04:08:12;100132.91;;;11.58;100.00
32131;BME280;18639;50.716;7.086;2022-09-17T04:10:37;100131.47;;;11.54;100.00
32131;BME280;18639;50.716;7.086;2022-09-17T04:13:03;100127.34;;;11.51;100.00
32131;BME280;18639;50.716;7.086;2022-09-17T04:15:28;100138.06;;;11.58;100.00
32131;BME280;18639;50.716;7.086;2022-09-17T04:17:57;100125.97;;;11.58;100.00
32131;BME280;18639;50.716;7.086;2022-09-17T04:20:26;100131.84;;;11.60;100.00
32131;BME280;18639;50.716;7.086;2022-09-17T04:22:51;100131.25;;;11.57;100.00
32131;BME280;18639;50.716;7.086;2022-09-17T04:25:17;100138.06;;;11.58;100.00
32131;BME280;18639;50.716;7.086;2022-09-17T04:27:44;100129.38;;;11.59;100.00
32131;BME280;18639;50.716;7.086;2022-09-17T04:30:10;100118.34;;;11.44;100.00
32131;BME280;18639;50.716;7.086;2022-09-17T04:32:36;100113.91;;;11.46;100.00
32131;BME280;18639;50.716;7.086;2022-09-17T04:35:01;100117.53;;;11.44;100.00
32131;BME280;18639;50.716;7.086;2022-09-17T04:37:26;100129.81;;;11.53;100.00
32131;BME280;18639;50.716;7.086;2022-09-17T04:39:52;100134.25;;;11.51;100.00
32131;BME280;18639;50.716;7.086;2022-09-17T04:42:17;100124.84;;;11.50;100.00
32131;BME280;18639;50.716;7.086;2022-09-17T04:44:42;100135.34;;;11.48;100.00
32131;BME280;18639;50.716;7.086;2022-09-17T04:47:08;100133.78;;;11.46;100.00
32131;BME280;18639;50.716;7.086;2022-09-17T04:49:33;100129.84;;;11.40;100.00
32131;BME280;18639;50.716;7.086;2022-09-17T04:51:58;100142.91;;;11.38;100.00
32131;BME280;18639;50.716;7.086;2022-09-17T04:54:23;100138.97;;;11.33;100.00
32131;BME280;18639;50.716;7.086;2022-09-17T04:56:49;100140.47;;;11.24;100.00
32131;BME280;18639;50.716;7.086;2022-09-17T04:59:14;100144.63;;;11.27;100.00
32131;BME280;18639;50.716;7.086;2022-09-17T05:01:40;100142.13;;;11.25;100.00
32131;BME280;18639;50.716;7.086;2022-09-17T05:04:06;100154.00;;;11.28;100.00
32131;BME280;18639;50.716;7.086;2022-09-17T05:06:31;100159.69;;;11.33;100.00
32131;BME280;18639;50.716;7.086;2022-09-17T05:08:57;100159.69;;;11.33;100.00
32131;BME280;18639;50.716;7.086;2022-09-17T05:11:22;100134.06;;;11.17;100.00
32131;BME280;18639;50.716;7.086;2022-09-17T05:13:47;100143.34;;;11.32;100.00
32131;BME280;18639;50.716;7.086;2022-09-17T05:16:13;100164.56;;;11.37;100.00
32131;BME280;18639;50.716;7.086;2022-09-17T05:18:38;100156.16;;;11.34;100.00
32131;BME280;18639;50.716;7.086;2022-09-17T05:21:04;100159.75;;;11.44;100.00
32131;BME280;18639;50.716;7.086;2022-09-17T05:23:29;100150.47;;;11.42;100.00
32131;BME280;18639;50.716;7.086;2022-09-17T05:25:58;100144.34;;;11.43;100.00
32131;BME280;18639;50.716;7.086;2022-09-17T05:28:24;100146.31;;;11.39;100.00
32131;BME280;18639;50.716;7.086;2022-09-17T05:30:50;100145.63;;;11.37;100.00
32131;BME280;18639;50.716;7.086;2022-09-17T05:33:15;100131.94;;;11.35;100.00
32131;BME280;18639;50.716;7.086;2022-09-17T05:35:40;100160.38;;;11.48;100.00
32131;BME280;18639;50.716;7.086;2022-09-17T05:38:08;100164.09;;;11.44;100.00
32131;BME280;18639;50.716;7.086;2022-09-17T05:40:33;100152.53;;;11.36;100.00
32131;BME280;18639;50.716;7.086;2022-09-17T05:43:03;100170.50;;;11.51;100.00
32131;BME280;18639;50.716;7.086;2022-09-17T05:45:31;100173.31;;;11.48;100.00
32131;BME280;18639;50.716;7.086;2022-09-17T05:47:57;100168.47;;;11.43;100.00
32131;BME280;18639;50.716;7.086;2022-09-17T05:50:23;100168.13;;;11.48;100.00
32131;BME280;18639;50.716;7.086;2022-09-17T05:52:50;100177.94;;;11.55;100.00
32131;BME280;18639;50.716;7.086;2022-09-17T05:55:16;100175.16;;;11.46;100.00
32131;BME280;18639;50.716;7.086;2022-09-17T05:57:42;100180.81;;;11.63;100.00
32131;BME280;18639;50.716;7.086;2022-09-17T06:00:07;100175.25;;;11.57;100.00
32131;BME280;18639;50.716;7.086;2022-09-17T06:02:33;100183.59;;;11.60;100.00
32131;BME280;18639;50.716;7.086;2022-09-17T06:04:58;100175.34;;;11.55;100.00
32131;BME280;18639;50.716;7.086;2022-09-17T06:07:26;100198.78;;;11.65;100.00
32131;BME280;18639;50.716;7.086;2022-09-17T06:09:51;100192.50;;;11.69;100.00
32131;BME280;18639;50.716;7.086;2022-09-17T06:12:16;100189.59;;;11.61;100.00
32131;BME280;18639;50.716;7.086;2022-09-17T06:14:42;100193.50;;;11.79;100.00
32131;BME280;18639;50.716;7.086;2022-09-17T06:17:07;100200.34;;;11.80;100.00
32131;BME280;18639;50.716;7.086;2022-09-17T06:19:32;100199.38;;;11.81;100.00
32131;BME280;18639;50.716;7.086;2022-09-17T06:21:58;100214.44;;;12.00;100.00
32131;BME280;18639;50.716;7.086;2022-09-17T06:24:23;100210.09;;;12.00;100.00
32131;BME280;18639;50.716;7.086;2022-09-17T06:26:50;100216.69;;;12.04;100.00
32131;BME280;18639;50.716;7.086;2022-09-17T06:29:15;100217.31;;;12.19;100.00
32131;BME280;18639;50.716;7.086;2022-09-17T06:31:41;100220.19;;;12.27;100.00
32131;BME280;18639;50.716;7.086;2022-09-17T06:34:10;100218.91;;;12.33;99.73
32131;BME280;18639;50.716;7.086;2022-09-17T06:36:36;100226.72;;;12.44;99.89
32131;BME280;18639;50.716;7.086;2022-09-17T06:39:01;100213.19;;;12.51;98.49
32131;BME280;18639;50.716;7.086;2022-09-17T06:41:27;100212.72;;;12.57;98.49
32131;BME280;18639;50.716;7.086;2022-09-17T06:43:52;100221.13;;;12.72;97.81
32131;BME280;18639;50.716;7.086;2022-09-17T06:46:20;100191.19;;;12.68;97.71
32131;BME280;18639;50.716;7.086;2022-09-17T06:48:46;100196.13;;;12.82;95.86
32131;BME280;18639;50.716;7.086;2022-09-17T06:51:11;100216.78;;;12.95;95.74
32131;BME280;18639;50.716;7.086;2022-09-17T06:53:37;100205.59;;;12.94;95.00
32131;BME280;18639;50.716;7.086;2022-09-17T06:56:04;100219.75;;;13.01;94.63
32131;BME280;18639;50.716;7.086;2022-09-17T06:58:30;100217.97;;;13.02;95.80
32131;BME280;18639;50.716;7.086;2022-09-17T07:00:59;100205.88;;;13.14;95.07
32131;BME280;18639;50.716;7.086;2022-09-17T07:03:26;100220.72;;;13.23;92.98
32131;BME280;18639;50.716;7.086;2022-09-17T07:05:51;100198.28;;;13.33;92.20
32131;BME280;18639;50.716;7.086;2022-09-17T07:08:16;100216.44;;;13.44;92.12
32131;BME280;18639;50.716;7.086;2022-09-17T07:10:42;100184.34;;;13.45;92.50
32131;BME280;18639;50.716;7.086;2022-09-17T07:13:07;100205.56;;;13.61;89.87
32131;BME280;18639;50.716;7.086;2022-09-17T07:15:32;100183.44;;;13.24;88.17
32131;BME280;18639;50.716;7.086;2022-09-17T07:17:58;100220.91;;;13.53;90.07
32131;BME280;18639;50.716;7.086;2022-09-17T07:20:24;100179.19;;;13.23;89.67
32131;BME280;18639;50.716;7.086;2022-09-17T07:22:56;100221.00;;;13.52;89.37
32131;BME280;18639;50.716;7.086;2022-09-17T07:25:25;100224.59;;;13.39;90.09
32131;BME280;18639;50.716;7.086;2022-09-17T07:27:51;100214.22;;;13.17;90.54
32131;BME280;18639;50.716;7.086;2022-09-17T07:30:17;100226.38;;;13.17;89.29
32131;BME280;18639;50.716;7.086;2022-09-17T07:32:42;100220.94;;;13.20;90.72
32131;BME280;18639;50.716;7.086;2022-09-17T07:35:08;100240.75;;;13.32;90.48
32131;BME280;18639;50.716;7.086;2022-09-17T07:37:33;100223.53;;;13.20;90.62
32131;BME280;18639;50.716;7.086;2022-09-17T07:39:58;100231.31;;;13.20;91.17
32131;BME280;18639;50.716;7.086;2022-09-17T07:42:24;100230.63;;;13.29;91.69
32131;BME280;18639;50.716;7.086;2022-09-17T07:44:49;100239.09;;;13.31;91.84
32131;BME280;18639;50.716;7.086;2022-09-17T07:47:14;100217.75;;;13.27;91.96
32131;BME280;18639;50.716;7.086;2022-09-17T07:49:40;100246.19;;;13.40;92.02
32131;BME280;18639;50.716;7.086;2022-09-17T07:52:05;100242.28;;;13.45;89.90
32131;BME280;18639;50.716;7.086;2022-09-17T07:54:34;100244.75;;;13.47;91.24
32131;BME280;18639;50.716;7.086;2022-09-17T07:57:02;100247.22;;;13.48;91.88
32131;BME280;18639;50.716;7.086;2022-09-17T07:59:28;100258.78;;;13.56;92.46
32131;BME280;18639;50.716;7.086;2022-09-17T08:01:53;100243.13;;;13.46;92.19
32131;BME280;18639;50.716;7.086;2022-09-17T08:04:18;100245.22;;;13.52;91.89
32131;BME280;18639;50.716;7.086;2022-09-17T08:06:44;100256.75;;;13.70;91.13
32131;BME280;18639;50.716;7.086;2022-09-17T08:09:12;100245.31;;;13.73;90.21
32131;BME280;18639;50.716;7.086;2022-09-17T08:11:39;100246.31;;;13.93;89.53
32131;BME280;18639;50.716;7.086;2022-09-17T08:14:05;100228.16;;;13.81;89.48
32131;BME280;18639;50.716;7.086;2022-09-17T08:16:31;100218.19;;;13.66;89.14
32131;BME280;18639;50.716;7.086;2022-09-17T08:18:56;100241.63;;;13.86;89.43
32131;BME280;18639;50.716;7.086;2022-09-17T08:21:22;100227.91;;;13.84;89.26
32131;BME280;18639;50.716;7.086;2022-09-17T08:23:48;100237.31;;;13.97;89.40
32131;BME280;18639;50.716;7.086;2022-09-17T08:26:16;100249.53;;;14.49;88.69
32131;BME280;18639;50.716;7.086;2022-09-17T08:28:50;100239.09;;;15.11;85.03
32131;BME280;18639;50.716;7.086;2022-09-17T08:31:17;100235.56;;;15.22;81.11
32131;BME280;18639;50.716;7.086;2022-09-17T08:33:44;100236.00;;;15.27;81.00
32131;BME280;18639;50.716;7.086;2022-09-17T08:36:11;100246.19;;;15.89;80.79
32131;BME280;18639;50.716;7.086;2022-09-17T08:38:37;100247.44;;;16.33;76.60
32131;BME280;18639;50.716;7.086;2022-09-17T08:44:41;100252.31;;;17.58;70.34
32131;BME280;18639;50.716;7.086;2022-09-17T08:46:45;100230.16;;;18.25;68.53
32131;BME280;18639;50.716;7.086;2022-09-17T08:52:08;100236.22;;;18.51;63.18
32131;BME280;18639;50.716;7.086;2022-09-17T08:55:06;100241.41;;;18.86;62.70
32131;BME280;18639;50.716;7.086;2022-09-17T09:00:22;100242.38;;;18.42;59.97
32131;BME280;18639;50.716;7.086;2022-09-17T09:05:22;100239.47;;;18.88;61.41
32131;BME280;18639;50.716;7.086;2022-09-17T09:07:55;100248.91;;;18.81;59.00
32131;BME280;18639;50.716;7.086;2022-09-17T09:10:27;100246.84;;;18.49;61.39
32131;BME280;18639;50.716;7.086;2022-09-17T09:12:54;100246.00;;;18.84;59.50
32131;BME280;18639;50.716;7.086;2022-09-17T09:18:02;100243.38;;;20.43;54.63
32131;BME280;18639;50.716;7.086;2022-09-17T09:23:25;100222.22;;;21.63;50.70
32131;BME280;18639;50.716;7.086;2022-09-17T09:25:59;100216.94;;;21.85;50.23
32131;BME280;18639;50.716;7.086;2022-09-17T09:28:38;100221.84;;;21.97;47.76
32131;BME280;18639;50.716;7.086;2022-09-17T09:33:39;100219.44;;;22.33;46.32
32131;BME280;18639;50.716;7.086;2022-09-17T09:36:14;100235.41;;;21.55;47.92
32131;BME280;18639;50.716;7.086;2022-09-17T09:38:51;100229.69;;;20.96;51.70
32131;BME280;18639;50.716;7.086;2022-09-17T09:41:27;100234.84;;;21.67;50.34
32131;BME280;18639;50.716;7.086;2022-09-17T09:44:01;100238.66;;;21.88;48.46
32131;BME280;18639;50.716;7.086;2022-09-17T09:47:00;100237.72;;;21.50;49.97
32131;BME280;18639;50.716;7.086;2022-09-17T09:52:12;100223.69;;;21.88;46.65
32131;BME280;18639;50.716;7.086;2022-09-17T09:58:16;100232.63;;;21.01;49.28
32131;BME280;18639;50.716;7.086;2022-09-17T10:00:46;100214.00;;;20.47;49.70
32131;BME280;18639;50.716;7.086;2022-09-17T10:05:52;100226.81;;;19.10;53.92
32131;BME280;18639;50.716;7.086;2022-09-17T10:08:18;100224.50;;;18.55;57.60
32131;BME280;18639;50.716;7.086;2022-09-17T10:10:54;100241.06;;;18.02;57.25
32131;BME280;18639;50.716;7.086;2022-09-17T10:13:20;100227.69;;;17.88;58.47
32131;BME280;18639;50.716;7.086;2022-09-17T10:15:45;100227.53;;;17.72;57.82
32131;BME280;18639;50.716;7.086;2022-09-17T10:18:11;100231.78;;;18.08;58.59
32131;BME280;18639;50.716;7.086;2022-09-17T10:23:16;100229.22;;;18.69;55.40
32131;BME280;18639;50.716;7.086;2022-09-17T10:25:42;100208.28;;;18.34;56.35
32131;BME280;18639;50.716;7.086;2022-09-17T10:30:58;100214.38;;;18.17;54.29
32131;BME280;18639;50.716;7.086;2022-09-17T10:33:31;100221.53;;;18.32;56.15
32131;BME280;18639;50.716;7.086;2022-09-17T10:36:05;100211.19;;;18.48;55.28
32131;BME280;18639;50.716;7.086;2022-09-17T10:38:34;100226.69;;;18.42;54.92
32131;BME280;18639;50.716;7.086;2022-09-17T10:41:16;100214.22;;;18.36;55.51
32131;BME280;18639;50.716;7.086;2022-09-17T10:43:42;100211.47;;;18.02;52.64
32131;BME280;18639;50.716;7.086;2022-09-17T10:46:18;100218.84;;;18.06;55.28
32131;BME280;18639;50.716;7.086;2022-09-17T10:49:09;100202.66;;;17.85;53.26
32131;BME280;18639;50.716;7.086;2022-09-17T10:51:36;100218.41;;;17.76;57.64
32131;BME280;18639;50.716;7.086;2022-09-17T10:56:39;100208.50;;;17.24;57.18
32131;BME280;18639;50.716;7.086;2022-09-17T10:59:36;100231.97;;;16.97;59.76
32131;BME280;18639;50.716;7.086;2022-09-17T11:07:40;100212.28;;;16.47;64.49
32131;BME280;18639;50.716;7.086;2022-09-17T11:10:19;100205.84;;;16.60;66.31
32131;BME280;18639;50.716;7.086;2022-09-17T11:18:38;100195.28;;;16.42;68.93
32131;BME280;18639;50.716;7.086;2022-09-17T11:21:20;100212.84;;;16.40;70.40
32131;BME280;18639;50.716;7.086;2022-09-17T11:24:14;100196.34;;;16.40;69.72
32131;BME280;18639;50.716;7.086;2022-09-17T11:35:10;100197.22;;;16.21;67.35
32131;BME280;18639;50.716;7.086;2022-09-17T11:38:11;100189.66;;;16.28;64.04
32131;BME280;18639;50.716;7.086;2022-09-17T11:40:43;100212.56;;;16.24;66.29
32131;BME280;18639;50.716;7.086;2022-09-17T11:45:38;100213.81;;;16.30;63.40
32131;BME280;18639;50.716;7.086;2022-09-17T11:48:11;100197.63;;;16.17;63.67
32131;BME280;18639;50.716;7.086;2022-09-17T11:50:46;100177.34;;;16.01;63.50
32131;BME280;18639;50.716;7.086;2022-09-17T11:53:22;100158.94;;;15.93;64.21
32131;BME280;18639;50.716;7.086;2022-09-17T11:59:01;100202.41;;;16.31;66.06
32131;BME280;18639;50.716;7.086;2022-09-17T12:01:40;100190.91;;;16.33;62.18
32131;BME280;18639;50.716;7.086;2022-09-17T12:06:48;100195.28;;;16.14;61.26
32131;BME280;18639;50.716;7.086;2022-09-17T12:09:19;100194.75;;;16.10;63.73
32131;BME280;18639;50.716;7.086;2022-09-17T12:14:23;100207.38;;;15.95;70.58
32131;BME280;18639;50.716;7.086;2022-09-17T12:16:54;100209.16;;;15.85;71.03
32131;BME280;18639;50.716;7.086;2022-09-17T12:19:26;100213.66;;;15.74;74.30
32131;BME280;18639;50.716;7.086;2022-09-17T12:24:30;100219.94;;;15.52;76.27
32131;BME280;18639;50.716;7.086;2022-09-17T12:29:43;100207.78;;;15.22;75.75
32131;BME280;18639;50.716;7.086;2022-09-17T12:32:33;100207.22;;;15.28;76.33
32131;BME280;18639;50.716;7.086;2022-09-17T12:46:36;100206.97;;;15.31;77.90
32131;BME280;18639;50.716;7.086;2022-09-17T12:52:19;100242.59;;;15.00;82.29
32131;BME280;18639;50.716;7.086;2022-09-17T12:55:02;100225.00;;;14.62;88.49
32131;BME280;18639;50.716;7.086;2022-09-17T13:00:11;100214.84;;;14.39;95.38
32131;BME280;18639;50.716;7.086;2022-09-17T13:08:22;100200.84;;;14.51;100.00
32131;BME280;18639;50.716;7.086;2022-09-17T13:14:37;100191.19;;;14.93;99.58
32131;BME280;18639;50.716;7.086;2022-09-17T13:16:50;100186.53;;;14.96;95.17
32131;BME280;18639;50.716;7.086;2022-09-17T13:22:17;100180.09;;;14.91;89.95
32131;BME280;18639;50.716;7.086;2022-09-17T13:24:45;100177.47;;;14.91;90.11
32131;BME280;18639;50.716;7.086;2022-09-17T13:27:21;100170.78;;;14.88;86.16
32131;BME280;18639;50.716;7.086;2022-09-17T13:37:42;100164.03;;;14.86;85.51
32131;BME280;18639;50.716;7.086;2022-09-17T13:40:24;100157.91;;;14.87;87.00
32131;BME280;18639;50.716;7.086;2022-09-17T13:45:23;100177.19;;;15.14;81.44
32131;BME280;18639;50.716;7.086;2022-09-17T13:48:01;100160.31;;;15.09;80.99
32131;BME280;18639;50.716;7.086;2022-09-17T13:50:39;100185.88;;;15.44;81.27
32131;BME280;18639;50.716;7.086;2022-09-17T13:55:40;100178.16;;;15.63;78.90
32131;BME280;18639;50.716;7.086;2022-09-17T14:00:58;100220.53;;;15.84;76.53
32131;BME280;18639;50.716;7.086;2022-09-17T14:05:55;100205.84;;;15.24;73.52
32131;BME280;18639;50.716;7.086;2022-09-17T14:08:27;100212.47;;;15.07;74.66
32131;BME280;18639;50.716;7.086;2022-09-17T14:10:56;100181.38;;;14.75;74.54
32131;BME280;18639;50.716;7.086;2022-09-17T14:16:01;100200.59;;;14.22;74.00
32131;BME280;18639;50.716;7.086;2022-09-17T14:20:53;100212.13;;;14.40;78.00
32131;BME280;18639;50.716;7.086;2022-09-17T14:23:19;100196.88;;;14.36;78.43
32131;BME280;18639;50.716;7.086;2022-09-17T14:25:49;100201.41;;;14.54;77.02
32131;BME280;18639;50.716;7.086;2022-09-17T14:31:34;100185.13;;;14.52;76.47
32131;BME280;18639;50.716;7.086;2022-09-17T14:34:04;100198.09;;;14.73;75.91
32131;BME280;18639;50.716;7.086;2022-09-17T14:36:34;100175.78;;;14.80;76.28
32131;BME280;18639;50.716;7.086;2022-09-17T14:39:03;100194.22;;;14.98;75.58
32131;BME280;18639;50.716;7.086;2022-09-17T14:41:37;100184.22;;;14.93;76.81
32131;BME280;18639;50.716;7.086;2022-09-17T14:44:07;100190.81;;;14.97;75.99
32131;BME280;18639;50.716;7.086;2022-09-17T14:46:42;100173.38;;;14.88;76.94
32131;BME280;18639;50.716;7.086;2022-09-17T14:49:24;100191.00;;;15.05;77.04
32131;BME280;18639;50.716;7.086;2022-09-17T14:51:51;100177.28;;;15.03;76.49
32131;BME280;18639;50.716;7.086;2022-09-17T14:54:21;100181.56;;;15.14;77.65
32131;BME280;18639;50.716;7.086;2022-09-17T14:56:58;100173.38;;;15.28;77.19
32131;BME280;18639;50.716;7.086;2022-09-17T15:02:26;100154.78;;;15.42;75.28
32131;BME280;18639;50.716;7.086;2022-09-17T15:04:53;100176.84;;;15.38;74.13
32131;BME280;18639;50.716;7.086;2022-09-17T15:07:20;100176.56;;;15.41;75.57
32131;BME280;18639;50.716;7.086;2022-09-17T15:09:45;100181.88;;;15.30;77.36
32131;BME280;18639;50.716;7.086;2022-09-17T15:12:15;100183.97;;;15.36;78.08
32131;BME280;18639;50.716;7.086;2022-09-17T15:14:42;100204.19;;;15.23;79.21
32131;BME280;18639;50.716;7.086;2022-09-17T15:17:15;100201.41;;;15.05;81.17
32131;BME280;18639;50.716;7.086;2022-09-17T15:19:45;100194.47;;;14.64;81.96
32131;BME280;18639;50.716;7.086;2022-09-17T15:22:20;100180.66;;;14.43;86.76
32131;BME280;18639;50.716;7.086;2022-09-17T15:24:55;100194.81;;;14.50;87.04
32131;BME280;18639;50.716;7.086;2022-09-17T15:27:33;100190.28;;;14.31;91.52
32131;BME280;18639;50.716;7.086;2022-09-17T15:30:21;100112.88;;;13.73;93.48
32131;BME280;18639;50.716;7.086;2022-09-17T15:32:53;100184.13;;;14.12;93.90
32131;BME280;18639;50.716;7.086;2022-09-17T15:35:27;100193.50;;;14.03;94.94
32131;BME280;18639;50.716;7.086;2022-09-17T15:40:42;100194.84;;;13.86;95.90
32131;BME280;18639;50.716;7.086;2022-09-17T15:45:48;100210.50;;;13.64;99.62
32131;BME280;18639;50.716;7.086;2022-09-17T15:48:37;100254.09;;;13.38;100.00
32131;BME280;18639;50.716;7.086;2022-09-17T15:51:05;100247.66;;;12.76;99.63